createdAt,value
2019-03-16T00:00:32.835Z,18.87
2019-03-16T00:03:02.435Z,17.03
2019-03-16T00:05:31.616Z,10.98
2019-03-16T00:08:00.804Z,13.93
2019-03-16T00:10:30.318Z,7.67
2019-03-16T00:13:00.011Z,9.20
2019-03-16T00:15:29.156Z,9.50
2019-03-16T00:17:58.289Z,7.27
2019-03-16T00:20:27.502Z,7.62
2019-03-16T00:22:57.038Z,11.80
2019-03-16T00:25:26.271Z,9.70
2019-03-16T00:27:55.692Z,9.27
2019-03-16T00:30:25.081Z,13.13
2019-03-16T00:32:54.938Z,15.10
2019-03-16T00:35:24.120Z,17.57
2019-03-16T00:37:53.289Z,9.60
2019-03-16T00:40:22.449Z,9.93
2019-03-16T00:42:51.743Z,13.03
2019-03-16T00:45:20.912Z,14.93
2019-03-16T00:47:50.115Z,12.67
2019-03-16T00:50:19.404Z,14.33
2019-03-16T00:52:48.963Z,5.63
2019-03-16T00:55:18.631Z,17.60
2019-03-16T00:57:47.841Z,10.67
2019-03-16T01:00:17.189Z,8.40
2019-03-16T01:02:46.452Z,8.80
2019-03-16T01:05:16.032Z,6.63
2019-03-16T01:07:45.207Z,11.07
2019-03-16T01:10:14.404Z,8.37
2019-03-16T01:12:43.838Z,5.60
2019-03-16T01:15:13.108Z,11.70
2019-03-16T01:17:42.385Z,17.03
2019-03-16T01:20:11.877Z,15.73
2019-03-16T01:22:41.159Z,24.80
2019-03-16T01:25:10.786Z,17.13
2019-03-16T01:27:39.985Z,10.80
2019-03-16T01:30:12.291Z,8.83
2019-03-16T01:32:41.458Z,11.83
2019-03-16T01:35:10.655Z,13.10
2019-03-16T01:37:39.923Z,18.03
2019-03-16T01:40:09.619Z,12.87
2019-03-16T01:42:39.038Z,14.03
2019-03-16T01:45:09.112Z,8.88
2019-03-16T01:47:38.360Z,27.73
2019-03-16T01:50:08.030Z,19.50
2019-03-16T01:52:38.732Z,8.03
2019-03-16T01:55:09.251Z,8.15
2019-03-16T01:57:38.381Z,12.03
2019-03-16T02:00:08.218Z,19.10
2019-03-16T02:02:53.724Z,11.70
2019-03-16T02:05:11.068Z,15.60
2019-03-16T02:07:40.555Z,14.63
2019-03-16T02:10:10.014Z,16.73
2019-03-16T02:12:39.117Z,8.80
2019-03-16T02:15:09.406Z,11.20
2019-03-16T02:17:38.886Z,10.50
2019-03-16T02:20:09.111Z,17.98
2019-03-16T02:22:38.621Z,10.73
2019-03-16T02:25:08.644Z,17.50
2019-03-16T02:27:37.828Z,12.03
2019-03-16T02:30:07.171Z,20.17
2019-03-16T02:32:36.331Z,16.03
2019-03-16T02:35:06.461Z,12.93
2019-03-16T02:37:35.946Z,11.33
2019-03-16T02:40:05.478Z,6.87
2019-03-16T02:42:35.026Z,9.90
2019-03-16T02:45:04.284Z,14.67
2019-03-16T02:47:34.114Z,9.90
2019-03-16T02:50:03.635Z,10.50
2019-03-16T02:52:33.136Z,16.50
2019-03-16T02:55:02.288Z,7.57
2019-03-16T02:57:31.458Z,7.13
2019-03-16T03:00:01.055Z,6.50
2019-03-16T03:02:30.185Z,7.93
2019-03-16T03:04:59.341Z,13.97
2019-03-16T03:07:28.941Z,20.80
2019-03-16T03:09:58.059Z,6.70
2019-03-16T03:12:27.923Z,12.60
2019-03-16T03:14:57.432Z,13.23
2019-03-16T03:17:27.175Z,7.30
2019-03-16T03:19:56.614Z,16.20
2019-03-16T03:22:25.796Z,15.30
2019-03-16T03:24:55.133Z,13.70
2019-03-16T03:27:24.555Z,10.90
2019-03-16T03:29:57.149Z,9.33
2019-03-16T03:32:25.031Z,12.65
2019-03-16T03:34:54.184Z,14.03
2019-03-16T03:37:23.720Z,12.93
2019-03-16T03:39:52.873Z,7.60
2019-03-16T03:42:22.127Z,10.93
2019-03-16T03:44:51.614Z,13.23
2019-03-16T03:47:21.144Z,10.27
2019-03-16T03:49:50.667Z,21.17
2019-03-16T03:52:20.153Z,10.97
2019-03-16T03:54:49.635Z,14.10
2019-03-16T03:57:19.310Z,19.33
2019-03-16T03:59:48.462Z,11.43
2019-03-16T04:02:17.982Z,4.85
2019-03-16T04:04:47.122Z,3.23
2019-03-16T04:07:20.171Z,8.80
2019-03-16T04:09:47.469Z,8.97
2019-03-16T04:12:16.630Z,14.95
2019-03-16T04:14:46.090Z,6.67
2019-03-16T04:17:15.281Z,6.00
2019-03-16T04:19:44.429Z,5.23
2019-03-16T04:22:13.598Z,8.83
2019-03-16T04:24:45.488Z,3.40
2019-03-16T04:27:16.726Z,4.83
2019-03-16T04:29:45.759Z,5.23
2019-03-16T04:32:15.009Z,5.80
2019-03-16T04:34:45.235Z,9.23
2019-03-16T04:37:14.690Z,10.53
2019-03-16T04:39:43.809Z,9.47
2019-03-16T04:42:13.401Z,4.03
2019-03-16T04:44:42.577Z,6.63
2019-03-16T04:47:11.708Z,11.03
2019-03-16T04:49:41.225Z,5.43
2019-03-16T04:52:10.523Z,7.10
2019-03-16T04:54:40.094Z,14.77
2019-03-16T04:57:09.677Z,6.53
2019-03-16T04:59:39.965Z,12.00
2019-03-16T05:02:09.141Z,6.63
2019-03-16T05:04:42.630Z,6.23
2019-03-16T05:07:10.030Z,6.97
2019-03-16T05:09:39.612Z,15.33
2019-03-16T05:12:09.172Z,5.40
2019-03-16T05:14:38.513Z,12.53
2019-03-16T05:17:07.948Z,10.10
2019-03-16T05:19:37.548Z,6.33
2019-03-16T05:22:06.757Z,21.53
2019-03-16T05:24:36.232Z,13.47
2019-03-16T05:27:05.444Z,9.20
2019-03-16T05:29:34.595Z,8.63
2019-03-16T05:32:03.774Z,13.20
2019-03-16T05:34:33.117Z,7.70
2019-03-16T05:37:02.728Z,10.27
2019-03-16T05:39:32.291Z,10.47
2019-03-16T05:42:01.482Z,5.20
2019-03-16T05:44:30.990Z,6.60
2019-03-16T05:47:00.156Z,8.33
2019-03-16T05:49:29.328Z,10.67
2019-03-16T05:51:58.536Z,13.50
2019-03-16T05:54:28.003Z,12.13
2019-03-16T05:56:58.427Z,7.30
2019-03-16T05:59:29.424Z,10.50
2019-03-16T06:01:58.579Z,14.83
2019-03-16T06:04:27.745Z,12.20
2019-03-16T06:06:56.892Z,9.20
2019-03-16T06:09:28.100Z,11.17
2019-03-16T06:11:57.285Z,6.93
2019-03-16T06:14:26.493Z,4.57
2019-03-16T06:16:56.116Z,9.47
2019-03-16T06:19:25.622Z,11.07
2019-03-16T06:21:55.282Z,6.37
2019-03-16T06:24:27.925Z,4.17
2019-03-16T06:26:56.058Z,12.90
2019-03-16T06:29:25.609Z,9.47
2019-03-16T06:31:55.484Z,5.43
2019-03-16T06:34:24.690Z,6.10
2019-03-16T06:36:54.304Z,7.70
2019-03-16T06:39:23.571Z,20.03
2019-03-16T06:41:53.171Z,10.70
2019-03-16T06:44:22.314Z,8.87
2019-03-16T06:46:51.539Z,8.40
2019-03-16T06:49:20.688Z,6.97
2019-03-16T06:51:49.840Z,9.60
2019-03-16T06:54:21.312Z,8.13
2019-03-16T06:56:50.893Z,7.87
2019-03-16T06:59:20.223Z,10.43
2019-03-16T07:01:49.770Z,11.43
2019-03-16T07:04:19.254Z,5.43
2019-03-16T07:06:48.421Z,8.77
2019-03-16T07:09:17.878Z,6.07
2019-03-16T07:11:47.061Z,12.77
2019-03-16T07:14:16.265Z,12.57
2019-03-16T07:16:45.432Z,5.83
2019-03-16T07:19:14.593Z,9.83
2019-03-16T07:21:43.918Z,6.60
2019-03-16T07:24:14.147Z,15.03
2019-03-16T07:26:43.326Z,5.50
2019-03-16T07:29:12.795Z,7.53
2019-03-16T07:31:41.935Z,10.10
2019-03-16T07:34:11.147Z,11.93
2019-03-16T07:36:40.300Z,9.50
2019-03-16T07:39:09.515Z,12.93
2019-03-16T07:41:39.066Z,11.53
2019-03-16T07:44:08.914Z,9.17
2019-03-16T07:46:38.081Z,9.33
2019-03-16T07:49:07.226Z,10.97
2019-03-16T07:51:36.826Z,12.50
2019-03-16T07:54:06.328Z,17.93
2019-03-16T07:56:36.170Z,12.63
2019-03-16T07:59:05.331Z,10.40
2019-03-16T08:01:35.157Z,14.37
2019-03-16T08:04:04.397Z,18.07
2019-03-16T08:06:33.641Z,13.53
2019-03-16T08:09:03.735Z,35.80
2019-03-16T08:11:33.145Z,17.60
2019-03-16T08:14:03.413Z,26.50
2019-03-16T08:16:32.605Z,18.03
2019-03-16T08:19:04.197Z,19.50
2019-03-16T08:21:33.359Z,19.37
2019-03-16T08:24:03.269Z,27.33
2019-03-16T08:26:32.408Z,21.43
2019-03-16T08:29:02.674Z,37.50
2019-03-16T08:31:32.004Z,19.70
2019-03-16T08:34:01.498Z,31.73
2019-03-16T08:36:30.976Z,21.93
2019-03-16T08:39:00.246Z,27.60
2019-03-16T08:41:29.438Z,21.17
2019-03-16T08:43:59.074Z,23.43
2019-03-16T08:46:28.434Z,23.27
2019-03-16T08:48:57.856Z,26.13
2019-03-16T08:51:28.042Z,25.50
2019-03-16T08:53:57.410Z,39.53
2019-03-16T08:56:26.927Z,25.10
2019-03-16T08:58:56.384Z,27.97
2019-03-16T09:01:26.489Z,24.85
2019-03-16T09:03:55.606Z,22.80
2019-03-16T09:06:24.800Z,28.13
2019-03-16T09:08:53.947Z,20.80
2019-03-16T09:11:24.353Z,29.30
2019-03-16T09:13:54.454Z,17.77
2019-03-16T09:16:24.057Z,25.73
2019-03-16T09:18:53.534Z,27.20
2019-03-16T09:21:23.067Z,21.77
2019-03-16T09:23:52.658Z,18.83
2019-03-16T09:26:22.205Z,18.83
2019-03-16T09:28:59.927Z,20.20
2019-03-16T09:31:23.523Z,21.23
2019-03-16T09:33:52.733Z,16.43
2019-03-16T09:36:21.981Z,17.60
2019-03-16T09:38:51.137Z,20.57
2019-03-16T09:41:22.183Z,20.40
2019-03-16T09:43:51.677Z,20.23
2019-03-16T09:46:21.257Z,19.70
2019-03-16T09:48:50.591Z,18.50
2019-03-16T09:51:21.601Z,21.27
2019-03-16T09:53:51.264Z,17.10
2019-03-16T09:56:20.739Z,20.53
2019-03-16T09:58:50.262Z,20.10
2019-03-16T10:01:21.295Z,14.23
2019-03-16T10:03:50.485Z,13.50
2019-03-16T10:06:19.655Z,13.13
2019-03-16T10:08:48.868Z,17.73
2019-03-16T10:11:18.393Z,11.77
2019-03-16T10:13:48.101Z,7.90
2019-03-16T10:16:17.691Z,10.57
2019-03-16T10:18:47.419Z,8.83
2019-03-16T10:21:18.785Z,7.30
2019-03-16T10:23:47.848Z,8.10
2019-03-16T10:26:17.377Z,8.33
2019-03-16T10:28:46.879Z,10.90
2019-03-16T10:31:16.120Z,11.30
2019-03-16T10:33:45.678Z,9.90
2019-03-16T10:36:14.778Z,10.23
2019-03-16T10:38:44.152Z,12.63
2019-03-16T10:41:13.602Z,11.00
2019-03-16T10:43:43.868Z,15.73
2019-03-16T10:46:13.300Z,12.97
2019-03-16T10:48:42.421Z,14.23
2019-03-16T10:51:11.979Z,11.33
2019-03-16T10:53:41.523Z,16.03
2019-03-16T10:56:11.038Z,16.50
2019-03-16T10:58:40.191Z,19.47
2019-03-16T11:01:09.390Z,26.47
2019-03-16T11:03:39.614Z,18.77
2019-03-16T11:06:08.931Z,18.50
2019-03-16T11:08:38.153Z,23.10
2019-03-16T11:11:07.884Z,17.40
2019-03-16T11:13:37.793Z,18.90
2019-03-16T11:16:08.452Z,18.07
2019-03-16T11:18:38.602Z,17.27
2019-03-16T11:21:08.187Z,22.70
2019-03-16T11:23:37.654Z,18.83
2019-03-16T11:26:08.698Z,22.27
2019-03-16T11:28:37.838Z,20.83
2019-03-16T11:31:07.056Z,23.27
2019-03-16T11:33:36.220Z,20.47
2019-03-16T11:36:05.763Z,20.83
2019-03-16T11:38:35.038Z,29.80
2019-03-16T11:41:04.233Z,13.17
2019-03-16T11:43:33.475Z,16.77
2019-03-16T11:46:03.073Z,22.10
2019-03-16T11:48:32.923Z,18.77
2019-03-16T11:51:02.059Z,18.63
2019-03-16T11:53:31.448Z,11.97
2019-03-16T11:56:00.601Z,9.97
2019-03-16T11:58:30.038Z,18.27
2019-03-16T12:00:59.543Z,15.10
2019-03-16T12:03:29.170Z,14.40
2019-03-16T12:05:58.759Z,18.50
2019-03-16T12:08:28.280Z,13.33
2019-03-16T12:10:57.435Z,12.57
2019-03-16T12:13:26.613Z,16.93
2019-03-16T12:15:56.162Z,13.37
2019-03-16T12:18:25.306Z,13.60
2019-03-16T12:20:54.500Z,10.95
2019-03-16T12:23:24.341Z,14.93
2019-03-16T12:25:53.507Z,9.50
2019-03-16T12:28:22.988Z,23.73
2019-03-16T12:30:52.766Z,10.70
2019-03-16T12:33:22.220Z,9.93
2019-03-16T12:35:51.705Z,9.67
2019-03-16T12:38:22.746Z,11.17
2019-03-16T12:40:51.912Z,10.33
2019-03-16T12:43:21.382Z,10.37
2019-03-16T12:45:50.639Z,9.70
2019-03-16T12:48:21.301Z,9.83
2019-03-16T12:50:54.208Z,8.10
2019-03-16T12:53:22.698Z,16.33
2019-03-16T12:55:52.765Z,5.87
2019-03-16T12:58:22.253Z,9.30
2019-03-16T13:00:51.477Z,11.50
2019-03-16T13:03:20.680Z,9.00
2019-03-16T13:05:50.028Z,10.47
2019-03-16T13:08:22.679Z,10.67
2019-03-16T13:10:52.000Z,7.80
2019-03-16T13:13:21.462Z,11.53
2019-03-16T13:15:50.618Z,10.13
2019-03-16T13:18:19.782Z,6.70
2019-03-16T13:20:49.339Z,5.60
2019-03-16T13:23:18.547Z,10.57
2019-03-16T13:25:48.069Z,11.77
2019-03-16T13:28:17.334Z,6.87
2019-03-16T13:30:47.075Z,7.37
2019-03-16T13:33:16.593Z,9.83
2019-03-16T13:35:45.733Z,8.27
2019-03-16T13:38:14.979Z,6.90
2019-03-16T13:40:44.156Z,9.57
2019-03-16T13:43:13.731Z,5.33
2019-03-16T13:45:43.351Z,4.57
2019-03-16T13:48:12.503Z,8.83
2019-03-16T13:50:41.691Z,7.27
2019-03-16T13:53:11.284Z,5.47
2019-03-16T13:55:40.475Z,4.97
2019-03-16T13:58:09.967Z,5.63
2019-03-16T14:00:39.695Z,4.70
2019-03-16T14:03:09.221Z,5.77
2019-03-16T14:05:39.049Z,5.40
2019-03-16T14:08:08.795Z,8.20
2019-03-16T14:10:38.349Z,9.60
2019-03-16T14:13:07.515Z,5.67
2019-03-16T14:15:36.712Z,8.17
2019-03-16T14:18:06.172Z,6.13
2019-03-16T14:20:37.142Z,4.10
2019-03-16T14:23:06.325Z,6.20
2019-03-16T14:25:35.762Z,6.57
2019-03-16T14:28:05.356Z,6.90
2019-03-16T14:30:41.026Z,11.97
2019-03-16T14:33:06.220Z,8.80
2019-03-16T14:35:35.458Z,3.77
2019-03-16T14:38:04.604Z,17.27
2019-03-16T14:40:33.800Z,4.90
2019-03-16T14:43:03.288Z,4.33
2019-03-16T14:45:34.789Z,5.03
2019-03-16T14:48:03.965Z,9.90
2019-03-16T14:50:33.128Z,4.47
2019-03-16T14:53:02.945Z,4.47
2019-03-16T14:55:32.140Z,5.90
2019-03-16T14:58:01.318Z,5.33
2019-03-16T15:00:38.273Z,2.70
2019-03-16T15:03:02.098Z,3.20
2019-03-16T15:05:31.749Z,3.17
2019-03-16T15:08:01.289Z,4.33
2019-03-16T15:10:30.831Z,6.83
2019-03-16T15:13:00.063Z,2.60
2019-03-16T15:15:29.229Z,5.23
2019-03-16T15:17:59.049Z,6.33
2019-03-16T15:20:28.573Z,9.40
2019-03-16T15:22:59.811Z,5.30
2019-03-16T15:25:30.422Z,4.60
2019-03-16T15:27:59.945Z,6.90
2019-03-16T15:30:29.077Z,4.87
2019-03-16T15:33:00.370Z,3.50
2019-03-16T15:35:29.417Z,6.27
2019-03-16T15:37:59.218Z,4.10
2019-03-16T15:40:28.405Z,4.70
2019-03-16T15:42:58.361Z,4.07
2019-03-16T15:45:28.500Z,2.80
2019-03-16T15:47:57.694Z,4.80
2019-03-16T15:50:26.917Z,3.43
2019-03-16T15:52:56.584Z,4.17
2019-03-16T15:55:26.140Z,5.23
2019-03-16T15:58:07.387Z,8.17
2019-03-16T16:00:26.733Z,5.30
2019-03-16T16:02:57.311Z,2.37
2019-03-16T16:05:26.970Z,7.20
2019-03-16T16:07:56.525Z,3.97
2019-03-16T16:10:25.932Z,3.87
2019-03-16T16:12:55.149Z,2.73
2019-03-16T16:15:24.507Z,3.43
2019-03-16T16:17:54.176Z,3.30
2019-03-16T16:20:23.865Z,6.90
2019-03-16T16:22:53.141Z,6.70
2019-03-16T16:25:22.347Z,3.20
2019-03-16T16:27:51.703Z,3.27
2019-03-16T16:30:21.034Z,2.80
2019-03-16T16:32:50.400Z,6.40
2019-03-16T16:35:19.648Z,5.03
2019-03-16T16:37:49.368Z,4.60
2019-03-16T16:40:18.820Z,2.90
2019-03-16T16:42:48.234Z,8.20
2019-03-16T16:45:17.826Z,6.63
2019-03-16T16:47:47.048Z,7.60
2019-03-16T16:50:16.304Z,12.73
2019-03-16T16:52:45.825Z,2.60
2019-03-16T16:55:15.594Z,3.47
2019-03-16T16:57:44.932Z,3.73
2019-03-16T17:00:15.979Z,4.30
2019-03-16T17:02:45.901Z,8.63
2019-03-16T17:05:15.387Z,6.07
2019-03-16T17:07:44.714Z,4.70
2019-03-16T17:10:14.622Z,6.60
2019-03-16T17:12:43.838Z,5.30
2019-03-16T17:15:14.066Z,5.57
2019-03-16T17:17:43.917Z,7.20
2019-03-16T17:20:13.652Z,9.10
2019-03-16T17:22:42.845Z,15.47
2019-03-16T17:25:12.462Z,10.10
2019-03-16T17:27:41.609Z,7.60
2019-03-16T17:30:13.590Z,9.10
2019-03-16T17:32:43.161Z,8.07
2019-03-16T17:35:12.429Z,6.43
2019-03-16T17:37:41.888Z,4.47
2019-03-16T17:40:11.407Z,7.60
2019-03-16T17:42:40.587Z,5.93
2019-03-16T17:45:10.400Z,9.13
2019-03-16T17:47:40.368Z,12.77
2019-03-16T17:50:09.777Z,6.20
2019-03-16T17:52:39.083Z,7.70
2019-03-16T17:55:08.855Z,6.25
2019-03-16T17:57:38.216Z,5.07
2019-03-16T18:00:08.351Z,4.93
2019-03-16T18:02:50.127Z,9.40
2019-03-16T18:05:08.967Z,14.33
2019-03-16T18:07:38.147Z,11.47
2019-03-16T18:10:07.742Z,11.83
2019-03-16T18:12:36.911Z,7.90
2019-03-16T18:15:07.366Z,12.43
2019-03-16T18:17:36.490Z,6.83
2019-03-16T18:20:06.612Z,10.30
2019-03-16T18:22:35.737Z,12.80
2019-03-16T18:25:05.703Z,6.20
2019-03-16T18:27:35.268Z,10.47
2019-03-16T18:30:05.288Z,10.00
2019-03-16T18:32:34.513Z,6.57
2019-03-16T18:35:03.829Z,5.23
2019-03-16T18:37:33.668Z,4.77
2019-03-16T18:40:02.854Z,10.23
2019-03-16T18:42:32.164Z,8.20
2019-03-16T18:45:01.323Z,11.97
2019-03-16T18:47:30.837Z,8.90
2019-03-16T18:50:00.423Z,8.10
2019-03-16T18:52:29.893Z,6.10
2019-03-16T18:54:59.409Z,8.73
2019-03-16T18:57:28.904Z,11.63
2019-03-16T18:59:58.278Z,8.87
2019-03-16T19:02:27.427Z,9.40
2019-03-16T19:04:56.917Z,8.03
2019-03-16T19:07:26.825Z,23.83
2019-03-16T19:09:56.151Z,7.23
2019-03-16T19:12:25.602Z,14.63
2019-03-16T19:14:54.795Z,8.37
2019-03-16T19:17:24.462Z,8.50
2019-03-16T19:19:54.172Z,5.40
2019-03-16T19:22:23.424Z,12.37
2019-03-16T19:24:53.035Z,12.77
2019-03-16T19:27:22.778Z,13.47
2019-03-16T19:29:52.096Z,14.53
2019-03-16T19:32:33.162Z,8.80
2019-03-16T19:34:52.732Z,7.07
2019-03-16T19:37:22.052Z,8.13
2019-03-16T19:39:51.874Z,10.70
2019-03-16T19:42:21.143Z,9.83
2019-03-16T19:44:50.465Z,7.00
2019-03-16T19:47:20.268Z,6.17
2019-03-16T19:49:50.141Z,11.43
2019-03-16T19:52:19.863Z,4.73
2019-03-16T19:54:49.019Z,13.83
2019-03-16T19:57:19.112Z,14.90
2019-03-16T19:59:48.379Z,6.70
2019-03-16T20:02:18.661Z,5.40
2019-03-16T20:04:48.245Z,5.83
2019-03-16T20:07:19.458Z,10.53
2019-03-16T20:09:48.584Z,3.77
2019-03-16T20:12:18.087Z,4.10
2019-03-16T20:14:47.598Z,8.77
2019-03-16T20:17:17.120Z,6.70
2019-03-16T20:19:46.306Z,9.43
2019-03-16T20:22:15.528Z,7.43
2019-03-16T20:24:44.963Z,8.33
2019-03-16T20:27:14.185Z,12.50
2019-03-16T20:29:43.668Z,11.67
2019-03-16T20:32:13.254Z,5.17
2019-03-16T20:34:42.814Z,4.47
2019-03-16T20:37:11.976Z,10.67
2019-03-16T20:39:41.297Z,5.57
2019-03-16T20:42:10.729Z,7.00
2019-03-16T20:44:40.546Z,6.27
2019-03-16T20:47:11.664Z,7.83
2019-03-16T20:49:41.366Z,5.40
2019-03-16T20:52:10.907Z,11.23
2019-03-16T20:54:40.075Z,7.80
2019-03-16T20:57:09.257Z,5.73
2019-03-16T20:59:38.416Z,8.77
2019-03-16T21:02:07.927Z,8.50
2019-03-16T21:04:37.449Z,11.50
2019-03-16T21:07:06.655Z,6.20
2019-03-16T21:09:36.574Z,8.83
2019-03-16T21:12:06.035Z,5.90
2019-03-16T21:14:37.456Z,18.17
2019-03-16T21:17:07.113Z,8.50
2019-03-16T21:19:38.832Z,8.03
2019-03-16T21:22:07.979Z,7.72
2019-03-16T21:24:37.671Z,6.00
2019-03-16T21:27:06.790Z,9.80
2019-03-16T21:29:36.265Z,8.37
2019-03-16T21:32:05.779Z,11.63
2019-03-16T21:34:34.929Z,9.33
2019-03-16T21:37:04.296Z,8.73
2019-03-16T21:39:33.748Z,10.73
2019-03-16T21:42:03.498Z,11.03
2019-03-16T21:44:33.007Z,10.57
2019-03-16T21:47:02.172Z,7.53
2019-03-16T21:49:34.826Z,14.20
2019-03-16T21:52:04.266Z,14.10
2019-03-16T21:54:33.431Z,9.77
2019-03-16T21:57:02.768Z,9.90
2019-03-16T21:59:32.034Z,10.90
2019-03-16T22:02:01.505Z,15.90
2019-03-16T22:04:30.670Z,21.83
2019-03-16T22:06:59.893Z,14.77
2019-03-16T22:09:29.077Z,12.80
2019-03-16T22:11:58.498Z,19.90
2019-03-16T22:14:28.121Z,12.27
2019-03-16T22:16:57.607Z,16.10
2019-03-16T22:19:27.316Z,13.50
2019-03-16T22:21:56.468Z,18.70
2019-03-16T22:24:25.920Z,21.03
2019-03-16T22:26:55.084Z,18.40
2019-03-16T22:29:24.539Z,12.93
2019-03-16T22:31:53.739Z,15.13
2019-03-16T22:34:23.367Z,16.57
2019-03-16T22:36:52.971Z,16.60
2019-03-16T22:39:22.421Z,14.90
2019-03-16T22:41:51.588Z,18.37
2019-03-16T22:44:21.106Z,19.30
2019-03-16T22:46:50.593Z,22.83
2019-03-16T22:49:19.771Z,17.50
2019-03-16T22:51:49.062Z,16.90
2019-03-16T22:54:19.288Z,12.10
2019-03-16T22:56:48.647Z,15.10
2019-03-16T22:59:17.838Z,13.73
2019-03-16T23:01:46.986Z,11.80
2019-03-16T23:04:17.927Z,14.13
2019-03-16T23:06:47.424Z,17.23
2019-03-16T23:09:16.618Z,17.13
2019-03-16T23:11:45.813Z,11.00
2019-03-16T23:14:15.380Z,13.93
2019-03-16T23:16:45.508Z,12.80
2019-03-16T23:19:15.157Z,18.03
2019-03-16T23:21:44.317Z,14.83
2019-03-16T23:24:13.786Z,17.37
2019-03-16T23:26:42.991Z,15.40
2019-03-16T23:29:12.136Z,16.27
2019-03-16T23:31:41.657Z,15.10
2019-03-16T23:34:19.087Z,14.43
2019-03-16T23:36:42.057Z,14.27
2019-03-16T23:39:13.258Z,14.03
2019-03-16T23:41:42.604Z,13.93
2019-03-16T23:44:12.064Z,20.47
2019-03-16T23:46:41.493Z,22.43
2019-03-16T23:49:11.006Z,19.33
2019-03-16T23:51:40.517Z,18.17
2019-03-16T23:54:09.711Z,14.30
2019-03-16T23:56:39.012Z,15.90
2019-03-16T23:59:08.889Z,16.53
